Time;durP1;ratioP1;P1;durP2;ratioP2;P2;SDS_P1;SDS_P2;PMS_P1;PMS_P2;Temp;Humidity;BMP_temperature;BMP_pressure;BME280_temperature;BME280_humidity;BME280_pressure;Samples;Min_cycle;Max_cycle;Signal;HPM_P1;HPM_P2
2023/06/20 00:09:13;;;;;;;;;;;;;;;19.60;100.00;97575.34;18545930;32;20052;-59
2023/06/20 00:19:15;;;;;;;;;;;;;;;19.66;100.00;97569.69;18559856;32;19988;-59
2023/06/20 00:29:18;;;;;;;;;;;;;;;19.55;100.00;97561.03;18559388;32;19957;-59
2023/06/20 00:39:20;;;;;;;;;;;;;;;19.37;100.00;97577.56;18553450;32;20794;-59
2023/06/20 00:49:23;;;;;;;;;;;;;;;19.21;100.00;97560.06;18570442;32;19957;-59
2023/06/20 00:59:25;;;;;;;;;;;;;;;19.07;100.00;97555.63;18569937;32;19971;-59
2023/06/20 01:09:34;;;;;;;;;;;;;;;19.05;100.00;97565.28;18554691;31;20238;-59
2023/06/20 01:19:55;;;;;;;;;;;;;;;19.13;100.00;97548.03;18554687;32;19970;-59
2023/06/20 01:30:00;;;;;;;;;;;;;;;19.22;100.00;97550.72;18567664;32;20257;-59
2023/06/20 01:40:06;;;;;;;;;;;;;;;19.16;100.00;97552.84;18553432;32;20008;-59
2023/06/20 01:50:08;;;;;;;;;;;;;;;19.04;100.00;97541.78;18566859;32;19964;-59
2023/06/20 02:00:11;;;;;;;;;;;;;;;18.99;100.00;97537.28;18566268;32;19952;-59
2023/06/20 02:10:15;;;;;;;;;;;;;;;19.02;100.00;97522.94;18565697;32;19960;-59
2023/06/20 02:20:18;;;;;;;;;;;;;;;19.10;100.00;97527.56;18565011;32;19953;-59
2023/06/20 02:30:23;;;;;;;;;;;;;;;19.19;100.00;97532.22;18563916;32;19960;-59
2023/06/20 02:40:26;;;;;;;;;;;;;;;19.23;100.00;97524.94;18549556;32;19953;-59
2023/06/20 02:50:41;;;;;;;;;;;;;;;19.23;100.00;97509.28;18562971;32;19969;-59
2023/06/20 03:00:49;;;;;;;;;;;;;;;19.20;100.00;97517.34;18562279;32;20376;-59
2023/06/20 03:10:51;;;;;;;;;;;;;;;19.13;100.00;97513.22;18562177;32;19967;-59
2023/06/20 03:20:53;;;;;;;;;;;;;;;19.04;100.00;97511.66;18561643;32;19971;-59
2023/06/20 03:30:56;;;;;;;;;;;;;;;18.94;100.00;97518.31;18560875;32;20306;-59
2023/06/20 03:40:59;;;;;;;;;;;;;;;18.83;100.00;97523.31;18561061;32;19953;-59
2023/06/20 03:51:02;;;;;;;;;;;;;;;18.65;100.00;97513.53;18546031;32;20005;-59
2023/06/20 04:01:06;;;;;;;;;;;;;;;18.49;100.00;97530.47;18560442;32;19969;-60
2023/06/20 04:11:09;;;;;;;;;;;;;;;18.46;100.00;97528.41;18565348;32;20008;-59
2023/06/20 04:21:11;;;;;;;;;;;;;;;18.53;100.00;97525.97;18572301;32;19990;-60
2023/06/20 04:31:14;;;;;;;;;;;;;;;18.66;100.00;97531.56;18571249;32;19957;-59
2023/06/20 04:41:17;;;;;;;;;;;;;;;18.74;100.00;97538.97;18571485;32;19990;-59
2023/06/20 04:51:19;;;;;;;;;;;;;;;18.95;100.00;97541.81;18570335;32;19972;-60
2023/06/20 05:01:24;;;;;;;;;;;;;;;19.12;100.00;97532.72;18569786;32;20261;-59
2023/06/20 05:11:27;;;;;;;;;;;;;;;19.32;100.00;97541.31;18569196;32;19944;-59
2023/06/20 05:21:29;;;;;;;;;;;;;;;19.51;100.00;97541.69;18553906;32;20297;-59
2023/06/20 05:31:32;;;;;;;;;;;;;;;19.59;100.00;97540.84;18553285;32;19952;-59
2023/06/20 05:41:36;;;;;;;;;;;;;;;19.73;100.00;97543.31;18567076;32;20318;-59
2023/06/20 05:51:40;;;;;;;;;;;;;;;20.02;100.00;97538.16;18552902;32;20012;-59
2023/06/20 06:01:45;;;;;;;;;;;;;;;20.37;100.00;97535.09;18566325;32;19996;-59
2023/06/20 06:11:49;;;;;;;;;;;;;;;20.36;100.00;97530.75;18565568;32;19987;-59
2023/06/20 06:21:52;;;;;;;;;;;;;;;20.37;100.00;97549.63;18564800;32;19952;-60
2023/06/20 06:31:58;;;;;;;;;;;;;;;20.82;100.00;97545.31;18563199;32;19957;-59
2023/06/20 06:42:01;;;;;;;;;;;;;;;21.30;100.00;97554.75;18549811;32;19990;-59
2023/06/20 06:52:04;;;;;;;;;;;;;;;21.90;100.00;97547.94;18562975;32;20434;-60
2023/06/20 07:02:07;;;;;;;;;;;;;;;22.33;100.00;97544.47;18548050;32;20000;-59
2023/06/20 07:12:22;;;;;;;;;;;;;;;22.70;100.00;97537.22;18548027;32;20258;-59
2023/06/20 07:22:29;;;;;;;;;;;;;;;23.04;100.00;97519.19;18562216;32;19953;-59
2023/06/20 07:43:46;;;;;;;;;;;;;;;23.65;100.00;97504.09;18564014;32;20051;-59
2023/06/20 07:53:50;;;;;;;;;;;;;;;23.98;100.00;97504.78;18559815;32;19961;-59
2023/06/20 08:03:56;;;;;;;;;;;;;;;24.40;100.00;97492.19;18546627;32;19968;-59
2023/06/20 08:14:03;;;;;;;;;;;;;;;24.66;100.00;97489.53;18572655;32;19956;-59
2023/06/20 08:24:08;;;;;;;;;;;;;;;25.04;100.00;97487.03;18572049;31;19987;-59
2023/06/20 08:34:11;;;;;;;;;;;;;;;25.47;100.00;97478.59;18571253;32;20328;-59
2023/06/20 08:44:26;;;;;;;;;;;;;;;25.80;100.00;97472.31;18571017;32;20358;-59
2023/06/20 08:54:43;;;;;;;;;;;;;;;26.24;100.00;97473.66;18570181;32;19971;-59
2023/06/20 09:05:10;;;;;;;;;;;;;;;26.65;100.00;97481.19;18569962;32;20007;-58
2023/06/20 09:15:14;;;;;;;;;;;;;;;27.01;100.00;97471.25;18554578;31;19994;-59
2023/06/20 09:25:27;;;;;;;;;;;;;;;27.31;100.00;97473.06;18553816;31;19973;-59
2023/06/20 09:35:32;;;;;;;;;;;;;;;27.81;100.00;97483.66;18567743;32;20025;-59
2023/06/20 09:45:36;;;;;;;;;;;;;;;28.17;94.93;97491.38;18553290;32;20028;-59
2023/06/20 09:55:40;;;;;;;;;;;;;;;28.59;87.72;97476.00;18552676;32;19953;-59
2023/06/20 10:05:49;;;;;;;;;;;;;;;28.93;77.60;97458.16;18565257;32;19976;-59
2023/06/20 10:15:52;;;;;;;;;;;;;;;29.24;61.92;97443.47;18550774;32;19949;-59
2023/06/20 10:26:00;;;;;;;;;;;;;;;29.53;63.98;97451.75;18550077;31;20359;-59
2023/06/20 10:36:08;;;;;;;;;;;;;;;29.90;62.19;97450.47;18563994;32;19993;-59
2023/06/20 10:46:12;;;;;;;;;;;;;;;30.27;54.00;97445.47;18563429;32;19971;-59
2023/06/20 10:56:24;;;;;;;;;;;;;;;30.57;48.38;97444.94;18562978;32;19953;-59
2023/06/20 11:06:30;;;;;;;;;;;;;;;30.94;48.27;97437.06;18562679;31;19971;-59
2023/06/20 11:16:34;;;;;;;;;;;;;;;30.82;47.79;97423.59;18562057;32;19972;-59
2023/06/20 11:26:38;;;;;;;;;;;;;;;31.18;46.08;97410.16;18561064;32;20009;-58
2023/06/20 11:36:41;;;;;;;;;;;;;;;31.74;47.83;97409.19;18547028;32;19988;-59
2023/06/20 11:46:44;;;;;;;;;;;;;;;32.19;45.33;97409.00;18561014;32;20008;-59
2023/06/20 11:56:57;;;;;;;;;;;;;;;32.64;41.50;97402.31;18560529;32;19960;-59
2023/06/20 12:07:04;;;;;;;;;;;;;;;33.08;40.25;97394.00;18546195;32;19961;-59
2023/06/20 12:17:10;;;;;;;;;;;;;;;33.57;38.87;97385.88;18560922;32;19992;-59
2023/06/20 12:27:16;;;;;;;;;;;;;;;34.13;37.43;97373.09;18545203;32;20340;-58
2023/06/20 12:37:19;;;;;;;;;;;;;;;34.40;34.58;97358.84;18570941;32;20320;-59
2023/06/20 12:47:24;;;;;;;;;;;;;;;34.85;37.75;97353.75;18570720;32;19983;-59
2023/06/20 12:57:30;;;;;;;;;;;;;;;35.30;34.97;97361.38;18555568;31;19948;-59
2023/06/20 13:07:35;;;;;;;;;;;;;;;35.53;34.72;97348.34;18569670;32;19971;-59
2023/06/20 13:17:43;;;;;;;;;;;;;;;35.75;33.86;97340.81;18569225;31;20240;-58
2023/06/20 13:27:57;;;;;;;;;;;;;;;36.08;32.51;97342.69;18568280;31;19963;-59
2023/06/20 13:38:06;;;;;;;;;;;;;;;36.71;31.10;97341.06;18554507;32;19956;-58
2023/06/20 13:48:10;;;;;;;;;;;;;;;36.71;30.37;97349.50;18566908;32;19991;-58
2023/06/20 13:58:15;;;;;;;;;;;;;;;36.57;33.58;97352.81;18566497;32;19988;-58
2023/06/20 14:08:23;;;;;;;;;;;;;;;37.16;30.66;97341.16;18565900;32;19964;-59
2023/06/20 14:18:33;;;;;;;;;;;;;;;37.74;30.86;97339.84;18551298;32;19953;-58
2023/06/20 14:28:40;;;;;;;;;;;;;;;37.28;31.43;97329.03;18564321;31;19983;-59
2023/06/20 14:38:47;;;;;;;;;;;;;;;37.60;32.46;97318.63;18564061;32;19976;-59
2023/06/20 14:48:50;;;;;;;;;;;;;;;37.21;32.30;97323.66;18563412;32;19979;-59
2023/06/20 14:58:53;;;;;;;;;;;;;;;36.30;35.70;97294.94;18548342;32;19968;-59
2023/06/20 15:08:57;;;;;;;;;;;;;;;34.39;39.76;97261.06;18548034;32;19948;-59
2023/06/20 15:19:40;;;;;;;;;;;;;;;;;;;;;
2023/06/20 15:30:12;;;;;;;;;;;;;;;26.99;77.74;97382.03;18561122;32;19948;-59
2023/06/20 15:40:21;;;;;;;;;;;;;;;23.28;100.00;97311.34;18561930;31;19949;-59
2023/06/20 15:50:26;;;;;;;;;;;;;;;22.78;100.00;97401.97;18560946;32;19956;-59
2023/06/20 16:00:30;;;;;;;;;;;;;;;22.47;100.00;97430.34;18560932;32;19975;-59
2023/06/20 16:10:34;;;;;;;;;;;;;;;22.57;100.00;97384.94;18556415;32;19976;-59
2023/06/20 16:20:37;;;;;;;;;;;;;;;23.16;100.00;97330.78;18572545;32;19975;-59
2023/06/20 16:30:40;;;;;;;;;;;;;;;24.15;100.00;97316.53;18571481;32;20005;-59
2023/06/20 16:40:43;;;;;;;;;;;;;;;25.34;100.00;97345.97;18571480;32;19966;-59
2023/06/20 16:50:45;;;;;;;;;;;;;;;26.68;100.00;97358.41;18570724;32;20022;-58
2023/06/20 17:00:49;;;;;;;;;;;;;;;26.48;100.00;97358.66;18543027;32;19949;-59
2023/06/20 17:10:52;;;;;;;;;;;;;;;25.79;100.00;97390.41;18569578;32;20049;-58
2023/06/20 17:20:55;;;;;;;;;;;;;;;25.28;100.00;97368.78;18568669;32;20006;-58
2023/06/20 17:31:00;;;;;;;;;;;;;;;24.90;100.00;97365.91;18567934;32;19987;-58
2023/06/20 17:41:04;;;;;;;;;;;;;;;24.74;100.00;97359.75;18567763;32;20268;-58
2023/06/20 17:51:11;;;;;;;;;;;;;;;24.47;100.00;97384.53;18567243;32;20417;-59
2023/06/20 18:01:14;;;;;;;;;;;;;;;24.18;100.00;97422.72;18566440;32;19952;-59
2023/06/20 18:11:44;;;;;;;;;;;;;;;23.92;100.00;97407.63;18551718;32;19968;-59
2023/06/20 18:21:58;;;;;;;;;;;;;;;23.60;100.00;97420.75;18298817;32;19969;-58
2023/06/20 18:32:04;;;;;;;;;;;;;;;23.40;100.00;97426.25;18272680;32;20387;-59
2023/06/20 18:42:07;;;;;;;;;;;;;;;23.30;100.00;97457.19;18297433;32;19973;-59
2023/06/20 18:52:10;;;;;;;;;;;;;;;23.35;100.00;97438.38;18355092;32;19978;-59
2023/06/20 19:02:15;;;;;;;;;;;;;;;23.26;100.00;97459.84;18562930;32;19956;-59
2023/06/20 19:12:20;;;;;;;;;;;;;;;22.97;100.00;97441.81;18562410;32;20250;-58
2023/06/20 19:22:31;;;;;;;;;;;;;;;22.68;100.00;97435.62;18547260;31;19957;-58
2023/06/20 19:32:38;;;;;;;;;;;;;;;22.37;100.00;97428.91;18561530;32;20333;-59
2023/06/20 19:42:58;;;;;;;;;;;;;;;21.98;100.00;97453.41;18560882;32;19953;-58
2023/06/20 19:53:03;;;;;;;;;;;;;;;21.75;100.00;97464.16;18561319;32;20001;-58
2023/06/20 20:03:06;;;;;;;;;;;;;;;21.50;100.00;97491.69;18560541;32;20006;-59
2023/06/20 20:13:15;;;;;;;;;;;;;;;21.26;100.00;97507.09;18545916;32;19961;-59
2023/06/20 20:23:20;;;;;;;;;;;;;;;21.07;100.00;97515.13;18546184;32;19956;-58
2023/06/20 20:33:45;;;;;;;;;;;;;;;20.87;100.00;97533.28;18547946;32;19967;-59
2023/06/20 20:43:49;;;;;;;;;;;;;;;20.67;100.00;97554.19;18559711;32;19949;-59
2023/06/20 20:53:53;;;;;;;;;;;;;;;20.55;100.00;97561.22;18550682;32;20384;-58
2023/06/20 21:03:58;;;;;;;;;;;;;;;20.45;100.00;97572.66;18569971;32;19961;-58
2023/06/20 21:14:02;;;;;;;;;;;;;;;20.36;100.00;97553.50;18569286;32;19967;-59
2023/06/20 21:24:07;;;;;;;;;;;;;;;20.22;100.00;97562.03;18568871;32;19960;-59
2023/06/20 21:34:12;;;;;;;;;;;;;;;20.06;100.00;97572.00;18568075;32;19960;-59
2023/06/20 21:44:16;;;;;;;;;;;;;;;19.94;100.00;97589.22;18567588;32;19969;-59
2023/06/20 21:54:20;;;;;;;;;;;;;;;19.87;100.00;97578.78;18566981;32;19964;-59
2023/06/20 22:04:24;;;;;;;;;;;;;;;19.74;100.00;97585.28;18565972;31;19979;-58
2023/06/20 22:14:27;;;;;;;;;;;;;;;19.65;100.00;97585.31;18551595;32;19964;-59
2023/06/20 22:24:31;;;;;;;;;;;;;;;19.56;100.00;97566.19;18565272;32;19968;-59
2023/06/20 22:34:36;;;;;;;;;;;;;;;19.50;100.00;97567.53;18564149;32;20008;-59
2023/06/20 22:44:41;;;;;;;;;;;;;;;19.39;100.00;97544.34;18563918;32;20016;-59
2023/06/20 22:54:44;;;;;;;;;;;;;;;19.28;100.00;97561.19;18563270;32;19988;-59
2023/06/20 23:04:49;;;;;;;;;;;;;;;19.17;100.00;97549.00;18548449;32;19997;-59
2023/06/20 23:14:51;;;;;;;;;;;;;;;19.07;100.00;97549.34;18562110;32;20016;-59
2023/06/20 23:24:54;;;;;;;;;;;;;;;18.96;100.00;97560.66;18547645;31;19952;-59
2023/06/20 23:34:57;;;;;;;;;;;;;;;18.85;100.00;97567.59;18561590;32;20020;-59
2023/06/20 23:45:00;;;;;;;;;;;;;;;18.73;100.00;97562.00;18561185;32;19975;-59
2023/06/20 23:55:04;;;;;;;;;;;;;;;18.64;100.00;97583.94;18560714;32;20373;-59
